sensor_id;sensor_type;location;lat;lon;timestamp;P1;durP1;ratioP1;P2;durP2;ratioP2
12585;SDS011;6358;50.760;0.282;2022-07-23T00:01:42;1.60;;;1.30;;
12585;SDS011;6358;50.760;0.282;2022-07-23T00:04:08;2.25;;;1.23;;
12585;SDS011;6358;50.760;0.282;2022-07-23T00:06:34;2.13;;;1.27;;
12585;SDS011;6358;50.760;0.282;2022-07-23T00:09:00;2.03;;;1.40;;
12585;SDS011;6358;50.760;0.282;2022-07-23T00:11:26;1.80;;;1.30;;
12585;SDS011;6358;50.760;0.282;2022-07-23T00:13:52;2.15;;;1.48;;
12585;SDS011;6358;50.760;0.282;2022-07-23T00:16:20;1.30;;;1.27;;
12585;SDS011;6358;50.760;0.282;2022-07-23T00:18:46;2.72;;;1.40;;
12585;SDS011;6358;50.760;0.282;2022-07-23T00:21:12;1.92;;;1.38;;
12585;SDS011;6358;50.760;0.282;2022-07-23T00:23:38;1.63;;;1.45;;
12585;SDS011;6358;50.760;0.282;2022-07-23T00:26:04;1.50;;;1.27;;
12585;SDS011;6358;50.760;0.282;2022-07-23T00:28:32;1.40;;;1.30;;
12585;SDS011;6358;50.760;0.282;2022-07-23T00:30:58;1.48;;;1.38;;
12585;SDS011;6358;50.760;0.282;2022-07-23T00:33:25;1.60;;;1.42;;
12585;SDS011;6358;50.760;0.282;2022-07-23T00:35:51;2.08;;;1.40;;
12585;SDS011;6358;50.760;0.282;2022-07-23T00:38:17;1.50;;;1.40;;
12585;SDS011;6358;50.760;0.282;2022-07-23T00:40:43;1.40;;;1.30;;
12585;SDS011;6358;50.760;0.282;2022-07-23T00:43:09;1.38;;;1.27;;
12585;SDS011;6358;50.760;0.282;2022-07-23T00:45:35;1.75;;;1.30;;
12585;SDS011;6358;50.760;0.282;2022-07-23T00:48:02;1.50;;;1.40;;
12585;SDS011;6358;50.760;0.282;2022-07-23T00:50:28;1.75;;;1.45;;
12585;SDS011;6358;50.760;0.282;2022-07-23T00:52:55;1.27;;;1.17;;
12585;SDS011;6358;50.760;0.282;2022-07-23T00:55:21;1.65;;;1.25;;
12585;SDS011;6358;50.760;0.282;2022-07-23T00:57:48;1.38;;;1.27;;
12585;SDS011;6358;50.760;0.282;2022-07-23T01:00:14;1.55;;;1.30;;
12585;SDS011;6358;50.760;0.282;2022-07-23T01:02:40;1.60;;;1.27;;
12585;SDS011;6358;50.760;0.282;2022-07-23T01:05:07;1.90;;;1.25;;
12585;SDS011;6358;50.760;0.282;2022-07-23T01:07:33;1.40;;;1.30;;
12585;SDS011;6358;50.760;0.282;2022-07-23T01:10:00;1.50;;;1.40;;
12585;SDS011;6358;50.760;0.282;2022-07-23T01:12:26;1.48;;;1.38;;
12585;SDS011;6358;50.760;0.282;2022-07-23T01:14:59;1.38;;;1.27;;
12585;SDS011;6358;50.760;0.282;2022-07-23T01:17:25;2.20;;;1.40;;
12585;SDS011;6358;50.760;0.282;2022-07-23T01:19:52;1.67;;;1.40;;
12585;SDS011;6358;50.760;0.282;2022-07-23T01:22:19;1.40;;;1.30;;
12585;SDS011;6358;50.760;0.282;2022-07-23T01:24:45;2.00;;;1.50;;
12585;SDS011;6358;50.760;0.282;2022-07-23T01:27:11;1.52;;;1.30;;
12585;SDS011;6358;50.760;0.282;2022-07-23T01:29:38;1.60;;;1.50;;
12585;SDS011;6358;50.760;0.282;2022-07-23T01:32:04;1.88;;;1.40;;
12585;SDS011;6358;50.760;0.282;2022-07-23T01:34:30;1.10;;;1.10;;
12585;SDS011;6358;50.760;0.282;2022-07-23T01:36:57;1.40;;;1.30;;
12585;SDS011;6358;50.760;0.282;2022-07-23T01:39:23;1.30;;;1.20;;
12585;SDS011;6358;50.760;0.282;2022-07-23T01:41:49;1.40;;;1.30;;
12585;SDS011;6358;50.760;0.282;2022-07-23T01:44:15;1.42;;;1.20;;
12585;SDS011;6358;50.760;0.282;2022-07-23T01:46:41;1.67;;;1.30;;
12585;SDS011;6358;50.760;0.282;2022-07-23T01:49:07;1.50;;;1.40;;
12585;SDS011;6358;50.760;0.282;2022-07-23T01:51:34;2.17;;;1.40;;
12585;SDS011;6358;50.760;0.282;2022-07-23T01:54:00;2.58;;;1.50;;
12585;SDS011;6358;50.760;0.282;2022-07-23T01:56:26;1.75;;;1.30;;
12585;SDS011;6358;50.760;0.282;2022-07-23T01:58:52;2.05;;;1.40;;
12585;SDS011;6358;50.760;0.282;2022-07-23T02:01:18;1.30;;;1.20;;
12585;SDS011;6358;50.760;0.282;2022-07-23T02:03:44;1.60;;;1.25;;
12585;SDS011;6358;50.760;0.282;2022-07-23T02:06:10;1.75;;;1.40;;
12585;SDS011;6358;50.760;0.282;2022-07-23T02:08:36;1.40;;;1.30;;
12585;SDS011;6358;50.760;0.282;2022-07-23T02:11:02;1.48;;;1.20;;
12585;SDS011;6358;50.760;0.282;2022-07-23T02:13:29;1.38;;;1.27;;
12585;SDS011;6358;50.760;0.282;2022-07-23T02:15:55;1.40;;;1.30;;
12585;SDS011;6358;50.760;0.282;2022-07-23T02:18:21;1.40;;;1.30;;
12585;SDS011;6358;50.760;0.282;2022-07-23T02:20:47;1.52;;;1.42;;
12585;SDS011;6358;50.760;0.282;2022-07-23T02:23:13;2.17;;;1.38;;
12585;SDS011;6358;50.760;0.282;2022-07-23T02:25:39;2.03;;;1.30;;
12585;SDS011;6358;50.760;0.282;2022-07-23T02:28:05;1.45;;;1.30;;
12585;SDS011;6358;50.760;0.282;2022-07-23T02:30:31;1.42;;;1.33;;
12585;SDS011;6358;50.760;0.282;2022-07-23T02:32:57;2.42;;;1.50;;
12585;SDS011;6358;50.760;0.282;2022-07-23T02:35:24;1.73;;;1.40;;
12585;SDS011;6358;50.760;0.282;2022-07-23T02:37:50;2.17;;;1.30;;
12585;SDS011;6358;50.760;0.282;2022-07-23T02:40:16;2.75;;;1.40;;
12585;SDS011;6358;50.760;0.282;2022-07-23T02:42:42;1.55;;;1.45;;
12585;SDS011;6358;50.760;0.282;2022-07-23T02:45:09;1.48;;;1.38;;
12585;SDS011;6358;50.760;0.282;2022-07-23T02:47:35;1.52;;;1.38;;
12585;SDS011;6358;50.760;0.282;2022-07-23T02:50:01;2.10;;;1.23;;
12585;SDS011;6358;50.760;0.282;2022-07-23T02:52:28;1.33;;;1.23;;
12585;SDS011;6358;50.760;0.282;2022-07-23T02:54:54;1.50;;;1.23;;
12585;SDS011;6358;50.760;0.282;2022-07-23T02:57:20;1.35;;;1.25;;
12585;SDS011;6358;50.760;0.282;2022-07-23T02:59:47;1.58;;;1.38;;
12585;SDS011;6358;50.760;0.282;2022-07-23T03:02:13;1.75;;;1.50;;
12585;SDS011;6358;50.760;0.282;2022-07-23T03:04:39;2.25;;;1.30;;
12585;SDS011;6358;50.760;0.282;2022-07-23T03:07:07;1.30;;;1.20;;
12585;SDS011;6358;50.760;0.282;2022-07-23T03:09:33;1.52;;;1.20;;
12585;SDS011;6358;50.760;0.282;2022-07-23T03:11:59;1.55;;;1.30;;
12585;SDS011;6358;50.760;0.282;2022-07-23T03:14:25;1.30;;;1.20;;
12585;SDS011;6358;50.760;0.282;2022-07-23T03:16:52;1.73;;;1.40;;
12585;SDS011;6358;50.760;0.282;2022-07-23T03:19:19;1.40;;;1.30;;
12585;SDS011;6358;50.760;0.282;2022-07-23T03:21:45;1.00;;;1.00;;
12585;SDS011;6358;50.760;0.282;2022-07-23T03:24:11;1.40;;;1.30;;
12585;SDS011;6358;50.760;0.282;2022-07-23T03:26:38;1.20;;;1.10;;
12585;SDS011;6358;50.760;0.282;2022-07-23T03:29:04;1.55;;;1.27;;
12585;SDS011;6358;50.760;0.282;2022-07-23T03:31:30;2.33;;;1.38;;
12585;SDS011;6358;50.760;0.282;2022-07-23T03:33:57;1.30;;;1.20;;
12585;SDS011;6358;50.760;0.282;2022-07-23T03:36:23;1.33;;;1.23;;
12585;SDS011;6358;50.760;0.282;2022-07-23T03:38:49;1.10;;;1.10;;
12585;SDS011;6358;50.760;0.282;2022-07-23T03:41:16;1.70;;;1.23;;
12585;SDS011;6358;50.760;0.282;2022-07-23T03:43:43;1.75;;;1.20;;
12585;SDS011;6358;50.760;0.282;2022-07-23T03:46:09;1.67;;;1.20;;
12585;SDS011;6358;50.760;0.282;2022-07-23T03:48:35;1.52;;;1.20;;
12585;SDS011;6358;50.760;0.282;2022-07-23T03:51:01;1.63;;;1.40;;
12585;SDS011;6358;50.760;0.282;2022-07-23T03:53:28;1.33;;;1.23;;
12585;SDS011;6358;50.760;0.282;2022-07-23T03:55:54;1.15;;;1.15;;
12585;SDS011;6358;50.760;0.282;2022-07-23T03:58:20;1.65;;;1.30;;
12585;SDS011;6358;50.760;0.282;2022-07-23T04:00:46;1.63;;;1.10;;
12585;SDS011;6358;50.760;0.282;2022-07-23T04:03:12;1.48;;;1.38;;
12585;SDS011;6358;50.760;0.282;2022-07-23T04:05:38;1.30;;;1.20;;
12585;SDS011;6358;50.760;0.282;2022-07-23T04:08:05;1.58;;;1.17;;
12585;SDS011;6358;50.760;0.282;2022-07-23T04:10:31;1.17;;;1.08;;
12585;SDS011;6358;50.760;0.282;2022-07-23T04:12:57;1.17;;;1.10;;
12585;SDS011;6358;50.760;0.282;2022-07-23T04:15:23;1.63;;;1.30;;
12585;SDS011;6358;50.760;0.282;2022-07-23T04:17:49;1.40;;;1.25;;
12585;SDS011;6358;50.760;0.282;2022-07-23T04:20:15;1.40;;;1.30;;
12585;SDS011;6358;50.760;0.282;2022-07-23T04:22:41;1.35;;;1.08;;
12585;SDS011;6358;50.760;0.282;2022-07-23T04:25:07;1.30;;;1.20;;
12585;SDS011;6358;50.760;0.282;2022-07-23T04:27:34;1.30;;;1.20;;
12585;SDS011;6358;50.760;0.282;2022-07-23T04:30:00;1.60;;;1.20;;
12585;SDS011;6358;50.760;0.282;2022-07-23T04:32:26;1.30;;;1.20;;
12585;SDS011;6358;50.760;0.282;2022-07-23T04:34:52;1.85;;;1.30;;
12585;SDS011;6358;50.760;0.282;2022-07-23T04:37:18;1.38;;;1.10;;
12585;SDS011;6358;50.760;0.282;2022-07-23T04:39:44;1.88;;;1.30;;
12585;SDS011;6358;50.760;0.282;2022-07-23T04:42:10;1.45;;;1.35;;
12585;SDS011;6358;50.760;0.282;2022-07-23T04:44:36;1.45;;;1.13;;
12585;SDS011;6358;50.760;0.282;2022-07-23T04:47:02;1.40;;;1.30;;
12585;SDS011;6358;50.760;0.282;2022-07-23T04:49:28;2.33;;;1.30;;
12585;SDS011;6358;50.760;0.282;2022-07-23T04:51:55;1.55;;;1.15;;
12585;SDS011;6358;50.760;0.282;2022-07-23T04:54:21;2.42;;;1.30;;
12585;SDS011;6358;50.760;0.282;2022-07-23T04:56:47;1.58;;;1.27;;
12585;SDS011;6358;50.760;0.282;2022-07-23T04:59:13;1.85;;;1.40;;
12585;SDS011;6358;50.760;0.282;2022-07-23T05:01:39;2.03;;;1.40;;
12585;SDS011;6358;50.760;0.282;2022-07-23T05:04:06;1.33;;;1.20;;
12585;SDS011;6358;50.760;0.282;2022-07-23T05:06:33;2.28;;;1.33;;
12585;SDS011;6358;50.760;0.282;2022-07-23T05:08:59;1.65;;;1.30;;
12585;SDS011;6358;50.760;0.282;2022-07-23T05:11:25;1.23;;;1.10;;
12585;SDS011;6358;50.760;0.282;2022-07-23T05:13:51;1.30;;;1.20;;
12585;SDS011;6358;50.760;0.282;2022-07-23T05:16:17;2.13;;;1.20;;
12585;SDS011;6358;50.760;0.282;2022-07-23T05:18:43;1.02;;;1.00;;
12585;SDS011;6358;50.760;0.282;2022-07-23T05:21:09;1.27;;;1.17;;
12585;SDS011;6358;50.760;0.282;2022-07-23T05:23:35;1.33;;;1.20;;
12585;SDS011;6358;50.760;0.282;2022-07-23T05:26:01;1.67;;;1.27;;
12585;SDS011;6358;50.760;0.282;2022-07-23T05:28:28;1.38;;;1.20;;
12585;SDS011;6358;50.760;0.282;2022-07-23T05:30:54;1.40;;;1.30;;
12585;SDS011;6358;50.760;0.282;2022-07-23T05:33:20;1.45;;;1.35;;
12585;SDS011;6358;50.760;0.282;2022-07-23T05:35:46;1.38;;;1.23;;
12585;SDS011;6358;50.760;0.282;2022-07-23T05:38:13;1.65;;;1.30;;
12585;SDS011;6358;50.760;0.282;2022-07-23T05:40:39;1.20;;;1.13;;
12585;SDS011;6358;50.760;0.282;2022-07-23T05:43:05;1.30;;;1.20;;
12585;SDS011;6358;50.760;0.282;2022-07-23T05:45:31;2.15;;;1.35;;
12585;SDS011;6358;50.760;0.282;2022-07-23T05:47:57;1.40;;;1.30;;
12585;SDS011;6358;50.760;0.282;2022-07-23T05:50:23;2.85;;;1.52;;
12585;SDS011;6358;50.760;0.282;2022-07-23T05:52:49;1.35;;;1.25;;
12585;SDS011;6358;50.760;0.282;2022-07-23T05:55:15;1.23;;;1.15;;
12585;SDS011;6358;50.760;0.282;2022-07-23T05:57:42;1.52;;;1.20;;
12585;SDS011;6358;50.760;0.282;2022-07-23T06:00:08;1.23;;;1.13;;
12585;SDS011;6358;50.760;0.282;2022-07-23T06:02:35;1.20;;;1.10;;
12585;SDS011;6358;50.760;0.282;2022-07-23T06:05:01;1.20;;;1.10;;
12585;SDS011;6358;50.760;0.282;2022-07-23T06:07:28;1.92;;;1.20;;
12585;SDS011;6358;50.760;0.282;2022-07-23T06:09:54;1.33;;;1.23;;
12585;SDS011;6358;50.760;0.282;2022-07-23T06:12:20;1.23;;;1.20;;
12585;SDS011;6358;50.760;0.282;2022-07-23T06:14:46;1.30;;;1.20;;
12585;SDS011;6358;50.760;0.282;2022-07-23T06:17:14;2.03;;;1.33;;
12585;SDS011;6358;50.760;0.282;2022-07-23T06:19:40;2.55;;;1.60;;
12585;SDS011;6358;50.760;0.282;2022-07-23T06:22:06;1.50;;;1.40;;
12585;SDS011;6358;50.760;0.282;2022-07-23T06:24:33;2.65;;;1.70;;
12585;SDS011;6358;50.760;0.282;2022-07-23T06:26:59;2.60;;;1.60;;
12585;SDS011;6358;50.760;0.282;2022-07-23T06:29:25;3.50;;;1.77;;
12585;SDS011;6358;50.760;0.282;2022-07-23T06:31:51;3.10;;;1.80;;
12585;SDS011;6358;50.760;0.282;2022-07-23T06:34:17;2.53;;;1.73;;
12585;SDS011;6358;50.760;0.282;2022-07-23T06:36:43;5.22;;;1.90;;
12585;SDS011;6358;50.760;0.282;2022-07-23T06:39:09;3.22;;;2.00;;
12585;SDS011;6358;50.760;0.282;2022-07-23T06:41:35;4.25;;;1.92;;
12585;SDS011;6358;50.760;0.282;2022-07-23T06:44:02;2.00;;;1.85;;
12585;SDS011;6358;50.760;0.282;2022-07-23T06:46:28;2.58;;;1.80;;
12585;SDS011;6358;50.760;0.282;2022-07-23T06:48:54;2.22;;;1.77;;
12585;SDS011;6358;50.760;0.282;2022-07-23T06:51:20;4.32;;;2.10;;
12585;SDS011;6358;50.760;0.282;2022-07-23T06:53:46;2.33;;;2.03;;
12585;SDS011;6358;50.760;0.282;2022-07-23T06:56:12;1.98;;;1.80;;
12585;SDS011;6358;50.760;0.282;2022-07-23T06:58:38;2.45;;;2.05;;
12585;SDS011;6358;50.760;0.282;2022-07-23T07:01:05;3.13;;;1.90;;
12585;SDS011;6358;50.760;0.282;2022-07-23T07:03:31;2.80;;;1.88;;
12585;SDS011;6358;50.760;0.282;2022-07-23T07:05:57;1.98;;;1.80;;
12585;SDS011;6358;50.760;0.282;2022-07-23T07:08:23;2.15;;;2.00;;
12585;SDS011;6358;50.760;0.282;2022-07-23T07:10:49;3.40;;;2.20;;
12585;SDS011;6358;50.760;0.282;2022-07-23T07:13:16;3.30;;;1.90;;
12585;SDS011;6358;50.760;0.282;2022-07-23T07:15:42;2.13;;;1.98;;
12585;SDS011;6358;50.760;0.282;2022-07-23T07:18:08;2.20;;;2.00;;
12585;SDS011;6358;50.760;0.282;2022-07-23T07:20:34;2.78;;;2.08;;
12585;SDS011;6358;50.760;0.282;2022-07-23T07:23:01;2.05;;;1.80;;
12585;SDS011;6358;50.760;0.282;2022-07-23T07:25:27;4.60;;;2.22;;
12585;SDS011;6358;50.760;0.282;2022-07-23T07:27:53;3.65;;;1.83;;
12585;SDS011;6358;50.760;0.282;2022-07-23T07:30:19;2.38;;;2.00;;
12585;SDS011;6358;50.760;0.282;2022-07-23T07:32:45;3.17;;;1.80;;
12585;SDS011;6358;50.760;0.282;2022-07-23T07:35:11;1.98;;;1.80;;
12585;SDS011;6358;50.760;0.282;2022-07-23T07:37:37;7.47;;;2.53;;
12585;SDS011;6358;50.760;0.282;2022-07-23T07:40:03;2.80;;;2.20;;
12585;SDS011;6358;50.760;0.282;2022-07-23T07:42:30;4.97;;;2.30;;
12585;SDS011;6358;50.760;0.282;2022-07-23T07:44:57;3.42;;;2.15;;
12585;SDS011;6358;50.760;0.282;2022-07-23T07:47:23;4.93;;;2.63;;
12585;SDS011;6358;50.760;0.282;2022-07-23T07:49:49;4.38;;;2.50;;
12585;SDS011;6358;50.760;0.282;2022-07-23T07:52:15;4.05;;;2.80;;
12585;SDS011;6358;50.760;0.282;2022-07-23T07:54:41;5.05;;;2.67;;
12585;SDS011;6358;50.760;0.282;2022-07-23T07:57:08;3.60;;;2.40;;
12585;SDS011;6358;50.760;0.282;2022-07-23T07:59:34;4.90;;;2.45;;
12585;SDS011;6358;50.760;0.282;2022-07-23T08:02:01;3.15;;;2.50;;
12585;SDS011;6358;50.760;0.282;2022-07-23T08:04:27;4.75;;;2.70;;
12585;SDS011;6358;50.760;0.282;2022-07-23T08:06:53;4.00;;;2.38;;
12585;SDS011;6358;50.760;0.282;2022-07-23T08:09:19;3.22;;;2.42;;
12585;SDS011;6358;50.760;0.282;2022-07-23T08:11:45;4.70;;;2.70;;
12585;SDS011;6358;50.760;0.282;2022-07-23T08:14:11;3.20;;;2.78;;
12585;SDS011;6358;50.760;0.282;2022-07-23T08:16:37;4.55;;;2.92;;
12585;SDS011;6358;50.760;0.282;2022-07-23T08:19:04;4.68;;;2.90;;
12585;SDS011;6358;50.760;0.282;2022-07-23T08:21:30;4.22;;;2.63;;
12585;SDS011;6358;50.760;0.282;2022-07-23T08:23:56;4.80;;;2.55;;
12585;SDS011;6358;50.760;0.282;2022-07-23T08:26:22;4.50;;;2.63;;
12585;SDS011;6358;50.760;0.282;2022-07-23T08:28:48;4.45;;;2.65;;
12585;SDS011;6358;50.760;0.282;2022-07-23T08:31:14;3.65;;;2.63;;
12585;SDS011;6358;50.760;0.282;2022-07-23T08:33:42;2.65;;;2.45;;
12585;SDS011;6358;50.760;0.282;2022-07-23T08:36:08;8.45;;;2.67;;
12585;SDS011;6358;50.760;0.282;2022-07-23T08:38:34;5.18;;;2.80;;
12585;SDS011;6358;50.760;0.282;2022-07-23T08:41:01;3.33;;;2.78;;
12585;SDS011;6358;50.760;0.282;2022-07-23T08:43:30;5.07;;;2.67;;
12585;SDS011;6358;50.760;0.282;2022-07-23T08:45:57;3.33;;;2.55;;
12585;SDS011;6358;50.760;0.282;2022-07-23T08:48:24;2.63;;;2.42;;
12585;SDS011;6358;50.760;0.282;2022-07-23T08:50:52;3.03;;;2.67;;
12585;SDS011;6358;50.760;0.282;2022-07-23T08:53:19;4.10;;;2.60;;
12585;SDS011;6358;50.760;0.282;2022-07-23T08:55:49;3.53;;;2.45;;
12585;SDS011;6358;50.760;0.282;2022-07-23T08:58:16;5.25;;;2.50;;
12585;SDS011;6358;50.760;0.282;2022-07-23T09:00:42;4.95;;;2.70;;
12585;SDS011;6358;50.760;0.282;2022-07-23T09:03:19;3.88;;;2.60;;
12585;SDS011;6358;50.760;0.282;2022-07-23T09:05:45;3.97;;;2.60;;
12585;SDS011;6358;50.760;0.282;2022-07-23T09:08:15;3.00;;;2.55;;
12585;SDS011;6358;50.760;0.282;2022-07-23T09:13:27;4.40;;;3.20;;
12585;SDS011;6358;50.760;0.282;2022-07-23T09:15:54;5.15;;;2.88;;
12585;SDS011;6358;50.760;0.282;2022-07-23T09:18:37;3.95;;;2.85;;
12585;SDS011;6358;50.760;0.282;2022-07-23T09:26:18;3.60;;;2.60;;
12585;SDS011;6358;50.760;0.282;2022-07-23T09:34:09;3.53;;;2.70;;
12585;SDS011;6358;50.760;0.282;2022-07-23T09:36:35;4.10;;;2.65;;
12585;SDS011;6358;50.760;0.282;2022-07-23T09:39:01;3.83;;;2.83;;
12585;SDS011;6358;50.760;0.282;2022-07-23T09:41:33;4.35;;;2.50;;
12585;SDS011;6358;50.760;0.282;2022-07-23T09:44:06;4.63;;;2.50;;
12585;SDS011;6358;50.760;0.282;2022-07-23T09:46:32;5.68;;;2.67;;
12585;SDS011;6358;50.760;0.282;2022-07-23T09:48:58;3.80;;;2.60;;
12585;SDS011;6358;50.760;0.282;2022-07-23T09:51:43;3.45;;;2.58;;
12585;SDS011;6358;50.760;0.282;2022-07-23T09:54:20;4.00;;;2.58;;
12585;SDS011;6358;50.760;0.282;2022-07-23T09:56:47;3.50;;;2.70;;
12585;SDS011;6358;50.760;0.282;2022-07-23T09:59:14;5.60;;;2.58;;
12585;SDS011;6358;50.760;0.282;2022-07-23T10:01:45;4.72;;;2.70;;
12585;SDS011;6358;50.760;0.282;2022-07-23T10:04:11;3.15;;;2.50;;
12585;SDS011;6358;50.760;0.282;2022-07-23T10:06:38;5.35;;;2.80;;
12585;SDS011;6358;50.760;0.282;2022-07-23T10:09:05;5.40;;;2.92;;
12585;SDS011;6358;50.760;0.282;2022-07-23T10:11:31;4.18;;;2.50;;
12585;SDS011;6358;50.760;0.282;2022-07-23T10:13:59;5.43;;;2.72;;
12585;SDS011;6358;50.760;0.282;2022-07-23T10:16:28;4.63;;;2.70;;
12585;SDS011;6358;50.760;0.282;2022-07-23T10:18:54;4.72;;;3.05;;
12585;SDS011;6358;50.760;0.282;2022-07-23T10:21:25;4.45;;;2.47;;
12585;SDS011;6358;50.760;0.282;2022-07-23T10:26:40;6.00;;;2.70;;
12585;SDS011;6358;50.760;0.282;2022-07-23T10:41:39;4.32;;;2.97;;
12585;SDS011;6358;50.760;0.282;2022-07-23T10:46:53;4.15;;;2.70;;
12585;SDS011;6358;50.760;0.282;2022-07-23T10:49:29;4.25;;;2.90;;
12585;SDS011;6358;50.760;0.282;2022-07-23T10:57:07;6.50;;;3.22;;
12585;SDS011;6358;50.760;0.282;2022-07-23T11:02:21;5.10;;;2.83;;
12585;SDS011;6358;50.760;0.282;2022-07-23T11:04:48;4.97;;;2.75;;
12585;SDS011;6358;50.760;0.282;2022-07-23T11:07:18;18.27;;;4.78;;
12585;SDS011;6358;50.760;0.282;2022-07-23T11:09:44;7.30;;;3.50;;
12585;SDS011;6358;50.760;0.282;2022-07-23T11:17:23;4.68;;;3.05;;
12585;SDS011;6358;50.760;0.282;2022-07-23T11:25:11;4.50;;;2.92;;
12585;SDS011;6358;50.760;0.282;2022-07-23T11:27:38;4.90;;;2.80;;
12585;SDS011;6358;50.760;0.282;2022-07-23T11:30:04;5.30;;;3.00;;
12585;SDS011;6358;50.760;0.282;2022-07-23T11:32:32;3.67;;;2.70;;
12585;SDS011;6358;50.760;0.282;2022-07-23T11:35:00;4.55;;;2.90;;
12585;SDS011;6358;50.760;0.282;2022-07-23T11:40:02;4.20;;;2.85;;
12585;SDS011;6358;50.760;0.282;2022-07-23T11:42:28;5.18;;;2.58;;
12585;SDS011;6358;50.760;0.282;2022-07-23T11:44:55;7.80;;;2.90;;
12585;SDS011;6358;50.760;0.282;2022-07-23T11:47:24;5.60;;;2.67;;
12585;SDS011;6358;50.760;0.282;2022-07-23T11:49:52;3.85;;;2.65;;
12585;SDS011;6358;50.760;0.282;2022-07-23T11:52:18;4.43;;;2.70;;
12585;SDS011;6358;50.760;0.282;2022-07-23T11:54:49;7.85;;;3.30;;
12585;SDS011;6358;50.760;0.282;2022-07-23T11:57:15;3.10;;;2.63;;
12585;SDS011;6358;50.760;0.282;2022-07-23T11:59:42;3.42;;;2.55;;
12585;SDS011;6358;50.760;0.282;2022-07-23T12:02:08;3.25;;;2.55;;
12585;SDS011;6358;50.760;0.282;2022-07-23T12:04:41;5.30;;;2.80;;
12585;SDS011;6358;50.760;0.282;2022-07-23T12:09:52;4.78;;;2.75;;
12585;SDS011;6358;50.760;0.282;2022-07-23T12:12:18;4.30;;;2.45;;
12585;SDS011;6358;50.760;0.282;2022-07-23T12:14:56;5.65;;;2.80;;
12585;SDS011;6358;50.760;0.282;2022-07-23T12:17:28;3.13;;;2.45;;
12585;SDS011;6358;50.760;0.282;2022-07-23T12:19:55;3.45;;;2.45;;
12585;SDS011;6358;50.760;0.282;2022-07-23T12:22:22;4.40;;;2.63;;
12585;SDS011;6358;50.760;0.282;2022-07-23T12:24:52;6.38;;;2.92;;
12585;SDS011;6358;50.760;0.282;2022-07-23T12:27:20;4.28;;;2.63;;
12585;SDS011;6358;50.760;0.282;2022-07-23T12:29:46;3.47;;;2.33;;
12585;SDS011;6358;50.760;0.282;2022-07-23T12:32:16;5.28;;;2.70;;
12585;SDS011;6358;50.760;0.282;2022-07-23T12:34:43;5.28;;;2.67;;
12585;SDS011;6358;50.760;0.282;2022-07-23T12:37:32;5.65;;;2.72;;
12585;SDS011;6358;50.760;0.282;2022-07-23T12:39:58;3.60;;;2.45;;
12585;SDS011;6358;50.760;0.282;2022-07-23T12:42:24;4.95;;;2.70;;
12585;SDS011;6358;50.760;0.282;2022-07-23T12:50:34;5.50;;;2.90;;
12585;SDS011;6358;50.760;0.282;2022-07-23T12:53:04;6.07;;;2.53;;
12585;SDS011;6358;50.760;0.282;2022-07-23T12:55:30;4.07;;;2.45;;
12585;SDS011;6358;50.760;0.282;2022-07-23T12:58:07;4.88;;;2.75;;
12585;SDS011;6358;50.760;0.282;2022-07-23T13:03:39;3.45;;;2.25;;
12585;SDS011;6358;50.760;0.282;2022-07-23T13:06:07;4.22;;;2.45;;
12585;SDS011;6358;50.760;0.282;2022-07-23T13:08:34;3.30;;;2.20;;
12585;SDS011;6358;50.760;0.282;2022-07-23T13:11:01;3.65;;;2.30;;
12585;SDS011;6358;50.760;0.282;2022-07-23T13:13:28;4.05;;;2.40;;
12585;SDS011;6358;50.760;0.282;2022-07-23T13:15:55;3.75;;;2.45;;
12585;SDS011;6358;50.760;0.282;2022-07-23T13:18:22;5.00;;;2.20;;
12585;SDS011;6358;50.760;0.282;2022-07-23T13:20:48;4.50;;;2.50;;
12585;SDS011;6358;50.760;0.282;2022-07-23T13:23:15;4.32;;;2.33;;
12585;SDS011;6358;50.760;0.282;2022-07-23T13:25:41;2.47;;;2.05;;
12585;SDS011;6358;50.760;0.282;2022-07-23T13:28:08;3.03;;;2.15;;
12585;SDS011;6358;50.760;0.282;2022-07-23T13:30:34;3.35;;;2.45;;
12585;SDS011;6358;50.760;0.282;2022-07-23T13:33:01;3.53;;;2.13;;
12585;SDS011;6358;50.760;0.282;2022-07-23T13:35:27;4.13;;;2.28;;
12585;SDS011;6358;50.760;0.282;2022-07-23T13:37:53;3.17;;;2.03;;
12585;SDS011;6358;50.760;0.282;2022-07-23T13:40:19;4.57;;;2.22;;
12585;SDS011;6358;50.760;0.282;2022-07-23T13:42:45;3.25;;;2.17;;
12585;SDS011;6358;50.760;0.282;2022-07-23T13:45:12;3.92;;;2.40;;
12585;SDS011;6358;50.760;0.282;2022-07-23T13:47:38;4.68;;;2.30;;
12585;SDS011;6358;50.760;0.282;2022-07-23T13:50:05;2.67;;;2.20;;
12585;SDS011;6358;50.760;0.282;2022-07-23T13:52:31;5.55;;;2.63;;
12585;SDS011;6358;50.760;0.282;2022-07-23T13:54:59;4.80;;;2.67;;
12585;SDS011;6358;50.760;0.282;2022-07-23T13:57:26;5.78;;;2.60;;
12585;SDS011;6358;50.760;0.282;2022-07-23T13:59:52;4.15;;;2.40;;
12585;SDS011;6358;50.760;0.282;2022-07-23T14:02:18;2.90;;;2.22;;
12585;SDS011;6358;50.760;0.282;2022-07-23T14:04:45;5.05;;;2.50;;
12585;SDS011;6358;50.760;0.282;2022-07-23T14:07:11;5.43;;;2.70;;
12585;SDS011;6358;50.760;0.282;2022-07-23T14:09:37;4.43;;;2.58;;
12585;SDS011;6358;50.760;0.282;2022-07-23T14:12:03;4.63;;;2.83;;
12585;SDS011;6358;50.760;0.282;2022-07-23T14:14:30;4.05;;;2.38;;
12585;SDS011;6358;50.760;0.282;2022-07-23T14:16:56;2.70;;;2.50;;
12585;SDS011;6358;50.760;0.282;2022-07-23T14:19:22;3.65;;;2.50;;
12585;SDS011;6358;50.760;0.282;2022-07-23T14:21:48;5.82;;;2.63;;
12585;SDS011;6358;50.760;0.282;2022-07-23T14:24:15;3.55;;;2.53;;
12585;SDS011;6358;50.760;0.282;2022-07-23T14:26:41;3.08;;;2.30;;
12585;SDS011;6358;50.760;0.282;2022-07-23T14:29:07;3.15;;;2.13;;
12585;SDS011;6358;50.760;0.282;2022-07-23T14:31:34;2.58;;;2.13;;
12585;SDS011;6358;50.760;0.282;2022-07-23T14:34:00;3.25;;;2.10;;
12585;SDS011;6358;50.760;0.282;2022-07-23T14:36:27;4.22;;;2.40;;
12585;SDS011;6358;50.760;0.282;2022-07-23T14:38:53;4.65;;;2.35;;
12585;SDS011;6358;50.760;0.282;2022-07-23T14:41:19;2.83;;;2.05;;
12585;SDS011;6358;50.760;0.282;2022-07-23T14:43:45;3.70;;;2.30;;
12585;SDS011;6358;50.760;0.282;2022-07-23T14:46:12;2.90;;;2.20;;
12585;SDS011;6358;50.760;0.282;2022-07-23T14:48:38;2.58;;;2.13;;
12585;SDS011;6358;50.760;0.282;2022-07-23T14:51:04;4.22;;;2.20;;
12585;SDS011;6358;50.760;0.282;2022-07-23T14:53:30;2.78;;;2.00;;
12585;SDS011;6358;50.760;0.282;2022-07-23T14:55:57;3.20;;;2.05;;
12585;SDS011;6358;50.760;0.282;2022-07-23T14:58:23;2.58;;;2.00;;
12585;SDS011;6358;50.760;0.282;2022-07-23T15:00:50;2.72;;;2.00;;
12585;SDS011;6358;50.760;0.282;2022-07-23T15:03:17;3.28;;;1.80;;
12585;SDS011;6358;50.760;0.282;2022-07-23T15:05:43;3.25;;;1.95;;
12585;SDS011;6358;50.760;0.282;2022-07-23T15:08:09;3.70;;;1.90;;
12585;SDS011;6358;50.760;0.282;2022-07-23T15:10:35;3.65;;;1.90;;
12585;SDS011;6358;50.760;0.282;2022-07-23T15:13:01;3.67;;;1.83;;
12585;SDS011;6358;50.760;0.282;2022-07-23T15:15:27;2.90;;;1.73;;
12585;SDS011;6358;50.760;0.282;2022-07-23T15:17:53;2.67;;;1.80;;
12585;SDS011;6358;50.760;0.282;2022-07-23T15:20:20;8.10;;;2.22;;
12585;SDS011;6358;50.760;0.282;2022-07-23T15:22:46;2.15;;;1.60;;
12585;SDS011;6358;50.760;0.282;2022-07-23T15:25:13;3.92;;;2.00;;
12585;SDS011;6358;50.760;0.282;2022-07-23T15:27:39;8.57;;;3.55;;
12585;SDS011;6358;50.760;0.282;2022-07-23T15:30:05;8.18;;;3.17;;
12585;SDS011;6358;50.760;0.282;2022-07-23T15:32:31;5.80;;;3.00;;
12585;SDS011;6358;50.760;0.282;2022-07-23T15:34:57;6.13;;;4.57;;
12585;SDS011;6358;50.760;0.282;2022-07-23T15:37:24;7.00;;;3.20;;
12585;SDS011;6358;50.760;0.282;2022-07-23T15:39:51;6.32;;;3.97;;
12585;SDS011;6358;50.760;0.282;2022-07-23T15:42:17;24.27;;;13.25;;
12585;SDS011;6358;50.760;0.282;2022-07-23T15:44:44;14.77;;;7.85;;
12585;SDS011;6358;50.760;0.282;2022-07-23T15:47:13;17.90;;;10.13;;
12585;SDS011;6358;50.760;0.282;2022-07-23T15:49:40;10.98;;;8.57;;
12585;SDS011;6358;50.760;0.282;2022-07-23T15:52:06;15.18;;;10.85;;
12585;SDS011;6358;50.760;0.282;2022-07-23T15:54:34;15.82;;;10.88;;
12585;SDS011;6358;50.760;0.282;2022-07-23T15:57:01;20.02;;;10.40;;
12585;SDS011;6358;50.760;0.282;2022-07-23T15:59:28;13.65;;;9.18;;
12585;SDS011;6358;50.760;0.282;2022-07-23T16:01:54;13.20;;;8.00;;